الصفحة الرئيسية
METAR-TAF:

METAR-TAF

مطار :

سيماي, كازاخستان

دائرة عرض: 50-21-05N, خط طول: 080-14-04E, ارتفاع: 232 متر

مراقبة الطقس الحالي

تاريخ ووقت الإصدار 8ساعات و 25 دقيقة قبل الساعة 10:30UTC
ريح 14 عقدة من الغرب
درجة الحرارة -8°درجة مئوية
الرطوبة 79%
ضغط 1026 hPa
الرؤية 10 كم أو أكثر
الغيوم لا تقل 1500 م ولا وجود لمزنة ركامية السحاب الأسود

METAR: UASS 221030Z 28007MPS CAVOK M08/M11 Q1026 NOSIG RMK QFE751/1001

زمن: 00:55 (18:55 UTC)

توقعات

تاريخ ووقت الإصدار 7ساعات و 55 دقيقة قبل الساعة 11:00UTC
التوقعات صالحة من22 الساعة 12 UTC إلى 22 الساعة 21 UTC
ريح 12 عقدة من الغرب تتزايد حتى 21 عقدة
الرؤية 10 كم أو أكثر
غيوم مفككة على ارتفاع 3000 قدم
غيوم مفككة على ارتفاع 10000 قدم
مؤقت
من 22 الساعة 12 UTC إلى 22 الساعة 18 UTC
الرؤية: 3000 متر
غيوم مفككة على ارتفاع 2000 قدم, مزنة ركامية.
زخات ثلجية خفيفة, غشاء, دخان

TAF: UASS 221100Z 2212/2221 27006G11MPS 9999 BKN030 BKN100 TEMPO 2212/2218 3000 -SHSN BR FU BKN020CB

أرصاد الطقس والتوقعات من أكثر من 4000 مطار (تقارير الطقس للمطار METAR والتنبؤ بالطقس بالمطارTAF).

المحطات المتاحة هي النقط الصفراء والحمراء على الخريطة.

حرك المؤشر فوق النقطة لمعرفة اسم المحطة.

ثم انقر لمعرفة أرصاد وتوقعات الطقس.

لتغيير الخارطة: اضغط على الأزرار الخضراء مع رمز الصليب الأسود للتكبير. على الزر الأخضر مع شرطة للتصغير، أو على الأسهم الخضراء للخرائط المجاورة.


METAR-TAF: